createdAt,value
2017-11-14T07:01:23.903Z,1017.94
2017-11-14T07:02:23.563Z,1017.96
2017-11-14T07:04:17.039Z,1017.96
2017-11-14T07:05:16.916Z,1017.97
2017-11-14T07:07:10.359Z,1017.93
2017-11-14T07:08:10.286Z,1017.95
2017-11-14T07:09:10.225Z,1017.89
2017-11-14T07:10:10.161Z,1017.91
2017-11-14T07:11:10.101Z,1017.93
2017-11-14T07:12:10.040Z,1017.91
2017-11-14T07:13:09.980Z,1017.87
2017-11-14T07:14:09.918Z,1017.86
2017-11-14T07:15:09.860Z,1017.85
2017-11-14T07:16:09.796Z,1017.86
2017-11-14T07:17:09.737Z,1017.85
2017-11-14T07:18:09.684Z,1017.85
2017-11-14T07:19:09.616Z,1017.83
2017-11-14T07:20:09.561Z,1017.92
2017-11-14T07:21:09.522Z,1017.95
2017-11-14T07:22:09.437Z,1017.94
2017-11-14T07:23:09.377Z,1017.98
2017-11-14T07:24:09.323Z,1018.00
2017-11-14T07:25:09.264Z,1018.02
2017-11-14T07:26:09.199Z,1018.07
2017-11-14T07:27:09.138Z,1018.06
2017-11-14T07:28:09.084Z,1018.04
2017-11-14T07:29:09.020Z,1018.06
2017-11-14T07:30:08.961Z,1018.07
2017-11-14T07:31:08.921Z,1018.05
2017-11-14T07:32:08.886Z,1018.02
2017-11-14T07:33:08.779Z,1017.99
2017-11-14T07:34:08.724Z,1018.00
2017-11-14T07:35:08.660Z,1018.01
2017-11-14T07:36:08.624Z,1018.01
2017-11-14T07:37:08.537Z,1018.03
2017-11-14T07:38:08.477Z,1017.99
2017-11-14T07:39:08.422Z,1018.00
2017-11-14T07:40:08.359Z,1018.03
2017-11-14T07:41:08.301Z,1018.01
2017-11-14T07:42:08.238Z,1017.98
2017-11-14T07:43:08.182Z,1018.02
2017-11-14T07:44:08.129Z,1018.03
2017-11-14T07:45:08.062Z,1018.04
2017-11-14T07:46:08.004Z,1018.03
2017-11-14T07:47:07.947Z,1018.02
2017-11-14T07:48:07.883Z,1018.03
2017-11-14T07:49:07.829Z,1018.06
2017-11-14T07:50:07.773Z,1017.99
2017-11-14T07:51:07.706Z,1017.98
2017-11-14T07:52:07.655Z,1017.97
2017-11-14T07:53:07.583Z,1017.95
2017-11-14T07:54:07.528Z,1017.94
2017-11-14T07:55:07.470Z,1017.94
2017-11-14T07:56:07.407Z,1017.91
2017-11-14T07:57:07.351Z,1017.90
2017-11-14T07:58:07.293Z,1017.94
2017-11-14T07:59:07.230Z,1017.95
2017-11-14T08:00:07.175Z,1017.90
2017-11-14T08:01:07.113Z,1017.93
2017-11-14T08:02:07.053Z,1017.91
2017-11-14T08:03:07.001Z,1017.96
2017-11-14T08:04:06.931Z,1017.92
2017-11-14T08:05:06.875Z,1017.99
2017-11-14T08:06:06.816Z,1018.03
2017-11-14T08:07:06.758Z,1018.05
2017-11-14T08:08:06.700Z,1018.04
2017-11-14T08:09:06.644Z,1018.00
2017-11-14T08:10:06.582Z,1018.01
2017-11-14T08:11:06.525Z,1018.07
2017-11-14T08:12:06.457Z,1018.07
2017-11-14T08:13:06.401Z,1018.09
2017-11-14T08:14:06.343Z,1018.10
2017-11-14T08:15:06.281Z,1018.13
2017-11-14T08:16:06.222Z,1018.09
2017-11-14T08:17:06.163Z,1018.09
2017-11-14T08:18:06.103Z,1018.07
2017-11-14T08:19:06.054Z,1018.06
2017-11-14T08:20:05.985Z,1018.09
2017-11-14T08:21:05.923Z,1018.06
2017-11-14T08:22:05.866Z,1018.09
2017-11-14T08:23:05.812Z,1018.08
2017-11-14T08:24:05.753Z,1018.04
2017-11-14T08:25:05.690Z,1018.02
2017-11-14T08:26:05.628Z,1018.01
2017-11-14T08:27:05.572Z,1018.03
2017-11-14T08:28:05.513Z,1018.02
2017-11-14T08:29:05.450Z,1017.99
2017-11-14T08:30:05.400Z,1018.04
2017-11-14T08:31:05.331Z,1018.02
2017-11-14T08:32:05.309Z,1018.02
2017-11-14T08:33:05.215Z,1018.00
2017-11-14T08:34:05.154Z,1018.02
2017-11-14T08:35:05.094Z,1018.02
2017-11-14T08:36:05.035Z,1018.00
2017-11-14T08:37:04.978Z,1018.01
2017-11-14T08:38:04.926Z,1018.04
2017-11-14T08:39:04.859Z,1017.98
2017-11-14T08:40:04.798Z,1018.01
2017-11-14T08:41:04.742Z,1017.97
2017-11-14T08:42:04.677Z,1017.98
2017-11-14T08:43:04.619Z,1017.96
2017-11-14T08:44:04.559Z,1017.90
2017-11-14T08:45:04.503Z,1017.92
2017-11-14T08:46:04.499Z,1017.91
2017-11-14T08:47:04.395Z,1017.92
2017-11-14T08:48:04.323Z,1017.89
2017-11-14T08:49:04.262Z,1017.93
2017-11-14T08:50:04.209Z,1017.91
2017-11-14T08:51:04.145Z,1017.96
2017-11-14T08:52:04.084Z,1017.96
2017-11-14T08:53:04.031Z,1017.99
2017-11-14T08:54:03.968Z,1018.02
2017-11-14T08:55:03.908Z,1018.02
2017-11-14T08:56:03.845Z,1018.07
2017-11-14T08:57:03.787Z,1018.07
2017-11-14T08:58:03.727Z,1018.09
2017-11-14T08:59:03.675Z,1018.09
2017-11-14T09:00:03.609Z,1018.11
2017-11-14T09:01:03.552Z,1018.12
2017-11-14T09:02:03.488Z,1018.12
2017-11-14T09:03:03.431Z,1018.17
2017-11-14T09:04:03.385Z,1018.16
2017-11-14T09:05:03.312Z,1018.17
2017-11-14T09:06:03.252Z,1018.14
2017-11-14T09:07:03.194Z,1018.18
2017-11-14T09:08:03.134Z,1018.17
2017-11-14T09:09:03.072Z,1018.17
2017-11-14T09:10:03.017Z,1018.18
2017-11-14T09:11:02.956Z,1018.18
2017-11-14T09:12:02.895Z,1018.17
2017-11-14T09:13:02.836Z,1018.18
2017-11-14T09:14:02.779Z,1018.19
2017-11-14T09:15:02.721Z,1018.22
2017-11-14T09:16:02.656Z,1018.21
2017-11-14T09:17:02.609Z,1018.19
2017-11-14T09:18:02.554Z,1018.18
2017-11-14T09:19:02.480Z,1018.19
2017-11-14T09:20:02.417Z,1018.20
2017-11-14T09:21:02.363Z,1018.19
2017-11-14T09:22:02.301Z,1018.21
2017-11-14T09:23:02.255Z,1018.22
2017-11-14T09:24:02.190Z,1018.22
2017-11-14T09:25:02.124Z,1018.23
2017-11-14T09:26:02.064Z,1018.24
2017-11-14T09:27:02.009Z,1018.22
2017-11-14T09:28:01.944Z,1018.23
2017-11-14T09:29:01.885Z,1018.26
2017-11-14T09:30:01.833Z,1018.25
2017-11-14T09:31:01.768Z,1018.20
2017-11-14T09:32:01.724Z,1018.28
2017-11-14T09:33:01.650Z,1018.31
2017-11-14T09:34:01.586Z,1018.31
2017-11-14T09:35:01.529Z,1018.35
2017-11-14T09:36:01.469Z,1018.38
2017-11-14T09:37:01.410Z,1018.38
2017-11-14T09:38:01.355Z,1018.39
2017-11-14T09:39:01.293Z,1018.39
2017-11-14T09:40:01.235Z,1018.40
2017-11-14T09:41:01.174Z,1018.44
2017-11-14T09:42:01.112Z,1018.39
2017-11-14T09:43:01.054Z,1018.39
2017-11-14T09:44:01.003Z,1018.41
2017-11-14T09:45:00.935Z,1018.42
2017-11-14T09:46:00.895Z,1018.47
2017-11-14T09:47:00.818Z,1018.47
2017-11-14T09:48:00.761Z,1018.49
2017-11-14T09:49:00.700Z,1018.51
2017-11-14T09:50:00.639Z,1018.57
2017-11-14T09:51:00.586Z,1018.58
2017-11-14T09:52:00.520Z,1018.61
2017-11-14T09:53:00.460Z,1018.65
2017-11-14T09:54:00.414Z,1018.69
2017-11-14T09:55:00.342Z,1018.70
2017-11-14T09:56:00.283Z,1018.75
2017-11-14T09:57:00.229Z,1018.76
2017-11-14T09:58:00.166Z,1018.74
2017-11-14T09:59:00.104Z,1018.71
2017-11-14T10:00:00.047Z,1018.78
2017-11-14T10:00:59.986Z,1018.76
2017-11-14T10:01:59.924Z,1018.76
2017-11-14T10:02:59.868Z,1018.80
2017-11-14T10:03:59.805Z,1018.81
2017-11-14T10:04:59.745Z,1018.81
2017-11-14T10:05:59.688Z,1018.79
2017-11-14T10:06:59.628Z,1018.79
2017-11-14T10:07:59.570Z,1018.80
2017-11-14T10:08:59.509Z,1018.79
2017-11-14T10:09:59.450Z,1018.78
2017-11-14T10:10:59.391Z,1018.74
2017-11-14T10:11:59.330Z,1018.71
2017-11-14T10:12:59.271Z,1018.64
2017-11-14T10:13:59.212Z,1018.62
2017-11-14T10:14:59.163Z,1018.58
2017-11-14T10:15:59.093Z,1018.58
2017-11-14T10:16:59.036Z,1018.58
2017-11-14T10:17:58.975Z,1018.61
2017-11-14T10:18:58.914Z,1018.62
2017-11-14T10:19:58.854Z,1018.65
2017-11-14T10:20:58.797Z,1018.63
2017-11-14T10:21:58.738Z,1018.60
2017-11-14T10:22:58.684Z,1018.57
2017-11-14T10:23:58.619Z,1018.55
2017-11-14T10:24:58.558Z,1018.54
2017-11-14T10:25:58.498Z,1018.48
2017-11-14T10:26:58.438Z,1018.48
2017-11-14T10:27:58.385Z,1018.42
2017-11-14T10:28:58.320Z,1018.42
2017-11-14T10:29:58.262Z,1018.42
2017-11-14T10:30:58.201Z,1018.41
2017-11-14T10:31:58.142Z,1018.39
2017-11-14T10:32:58.084Z,1018.44
2017-11-14T10:33:58.024Z,1018.38
2017-11-14T10:34:57.967Z,1018.40
2017-11-14T10:35:57.904Z,1018.38
2017-11-14T10:36:57.852Z,1018.40
2017-11-14T10:37:57.788Z,1018.29
2017-11-14T10:38:57.725Z,1018.28
2017-11-14T10:39:57.669Z,1018.28
2017-11-14T10:40:57.652Z,1018.22
2017-11-14T10:41:57.549Z,1018.16
2017-11-14T10:42:57.494Z,1018.07
2017-11-14T10:43:57.439Z,1018.03
2017-11-14T10:44:57.369Z,1018.04
2017-11-14T10:45:57.311Z,1018.01
2017-11-14T10:46:57.250Z,1018.12
2017-11-14T10:47:57.191Z,1018.12
2017-11-14T10:48:57.132Z,1018.10
2017-11-14T10:49:57.076Z,1018.03
2017-11-14T10:50:57.017Z,1018.09
2017-11-14T10:51:56.956Z,1018.11
2017-11-14T10:52:56.894Z,1018.05
2017-11-14T10:53:56.841Z,1018.07
2017-11-14T10:54:56.780Z,1018.02
2017-11-14T10:55:56.717Z,1018.06
2017-11-14T10:56:56.662Z,1018.06
2017-11-14T10:57:56.596Z,1018.04
2017-11-14T10:58:56.545Z,1018.05
2017-11-14T10:59:56.484Z,1018.04
2017-11-14T11:00:56.439Z,1018.01
2017-11-14T11:01:56.361Z,1018.03
2017-11-14T11:02:56.327Z,1018.07
2017-11-14T11:03:56.241Z,1018.06
2017-11-14T11:04:56.195Z,1018.04
2017-11-14T11:05:56.124Z,1018.04
2017-11-14T11:06:56.066Z,1017.94
2017-11-14T11:07:56.008Z,1017.91
2017-11-14T11:08:55.946Z,1017.97
2017-11-14T11:09:55.885Z,1017.92
2017-11-14T11:10:55.827Z,1017.87
2017-11-14T11:11:55.764Z,1017.96
2017-11-14T11:12:55.708Z,1017.95
2017-11-14T11:13:55.647Z,1017.93
2017-11-14T11:14:55.608Z,1017.97
2017-11-14T11:15:55.527Z,1017.99
2017-11-14T11:16:55.475Z,1017.89
2017-11-14T11:17:55.415Z,1017.91
2017-11-14T11:18:55.357Z,1017.87
2017-11-14T11:19:55.293Z,1017.88
2017-11-14T11:20:55.258Z,1017.85
2017-11-14T11:21:55.180Z,1017.82
2017-11-14T11:22:55.111Z,1017.85
2017-11-14T11:23:55.058Z,1017.85
2017-11-14T11:24:55.000Z,1017.82
2017-11-14T11:25:54.951Z,1017.73
2017-11-14T11:26:54.876Z,1017.75
2017-11-14T11:27:54.816Z,1017.77
2017-11-14T11:28:54.754Z,1017.73
2017-11-14T11:29:54.698Z,1017.74
2017-11-14T11:30:54.638Z,1017.72
2017-11-14T11:31:54.585Z,1017.74
2017-11-14T11:32:54.521Z,1017.67
2017-11-14T11:33:54.458Z,1017.65
2017-11-14T11:34:54.400Z,1017.64
2017-11-14T11:35:54.340Z,1017.65
2017-11-14T11:36:54.284Z,1017.70
2017-11-14T11:37:54.230Z,1017.63
2017-11-14T11:38:54.165Z,1017.63
2017-11-14T11:39:54.102Z,1017.64
2017-11-14T11:40:54.045Z,1017.63
2017-11-14T11:41:53.986Z,1017.74
2017-11-14T11:42:53.922Z,1017.68
2017-11-14T11:43:53.866Z,1017.67
2017-11-14T11:44:53.820Z,1017.70
2017-11-14T11:45:53.746Z,1017.66
2017-11-14T11:46:53.692Z,1017.69
2017-11-14T11:47:53.627Z,1017.64
2017-11-14T11:48:53.566Z,1017.72
2017-11-14T11:49:53.508Z,1017.71
2017-11-14T11:50:53.450Z,1017.72
2017-11-14T11:51:53.389Z,1017.72
2017-11-14T11:52:53.329Z,1017.79
2017-11-14T11:53:53.271Z,1017.72
2017-11-14T11:54:53.210Z,1017.68
2017-11-14T11:55:53.149Z,1017.67
2017-11-14T11:56:53.103Z,1017.63
2017-11-14T11:57:53.032Z,1017.69
2017-11-14T11:58:52.981Z,1017.67
2017-11-14T11:59:52.914Z,1017.70
2017-11-14T12:00:52.854Z,1017.67
2017-11-14T12:01:52.796Z,1017.69
2017-11-14T12:02:52.738Z,1017.67
2017-11-14T12:03:52.679Z,1017.64
2017-11-14T12:04:52.617Z,1017.63
2017-11-14T12:05:52.554Z,1017.62
2017-11-14T12:06:52.498Z,1017.60
2017-11-14T12:07:52.438Z,1017.64
2017-11-14T12:08:52.386Z,1017.58
2017-11-14T12:09:52.321Z,1017.58
2017-11-14T12:10:52.260Z,1017.55
2017-11-14T12:11:52.204Z,1017.60
2017-11-14T12:12:52.139Z,1017.59
2017-11-14T12:13:52.089Z,1017.60
2017-11-14T12:14:52.038Z,1017.61
2017-11-14T12:15:51.963Z,1017.65
2017-11-14T12:16:51.906Z,1017.64
2017-11-14T12:17:51.846Z,1017.66
2017-11-14T12:18:51.788Z,1017.67
2017-11-14T12:19:51.727Z,1017.61
2017-11-14T12:20:51.671Z,1017.63
2017-11-14T12:21:51.606Z,1017.56
2017-11-14T12:22:51.552Z,1017.55
2017-11-14T12:23:51.489Z,1017.54
2017-11-14T12:24:51.432Z,1017.55
2017-11-14T12:25:51.374Z,1017.57
2017-11-14T12:26:51.313Z,1017.51
2017-11-14T12:27:51.254Z,1017.57
2017-11-14T12:28:51.232Z,1017.53
2017-11-14T12:29:51.134Z,1017.53
2017-11-14T12:30:51.075Z,1017.52
2017-11-14T12:31:51.026Z,1017.51
2017-11-14T12:32:50.953Z,1017.44
2017-11-14T12:33:50.898Z,1017.50
2017-11-14T12:34:50.843Z,1017.46
2017-11-14T12:35:50.774Z,1017.54
2017-11-14T12:36:50.718Z,1017.52
2017-11-14T12:37:50.659Z,1017.50
2017-11-14T12:38:50.602Z,1017.52
2017-11-14T12:39:50.542Z,1017.50
2017-11-14T12:40:50.481Z,1017.50
2017-11-14T12:41:50.445Z,1017.49
2017-11-14T12:42:50.386Z,1017.51
2017-11-14T12:43:50.313Z,1017.53
2017-11-14T12:44:50.243Z,1017.49
2017-11-14T12:45:50.183Z,1017.52
2017-11-14T12:46:50.124Z,1017.53
2017-11-14T12:47:50.069Z,1017.55
2017-11-14T12:48:50.016Z,1017.56
2017-11-14T12:49:49.946Z,1017.58
2017-11-14T12:50:49.888Z,1017.54
2017-11-14T12:51:49.827Z,1017.53
2017-11-14T12:52:49.768Z,1017.54
2017-11-14T12:53:49.709Z,1017.53
2017-11-14T12:54:49.667Z,1017.53
2017-11-14T12:55:49.593Z,1017.50
2017-11-14T12:56:49.543Z,1017.49
2017-11-14T12:57:49.533Z,1017.49
2017-11-14T12:58:49.410Z,1017.49
2017-11-14T12:59:49.355Z,1017.44
2017-11-14T13:00:49.292Z,1017.47
2017-11-14T13:01:49.234Z,1017.46
2017-11-14T13:02:49.173Z,1017.39
2017-11-14T13:03:49.111Z,1017.42
2017-11-14T13:04:49.061Z,1017.45
2017-11-14T13:05:49.004Z,1017.47
2017-11-14T13:06:48.937Z,1017.46
2017-11-14T13:16:53.109Z,1017.45
2017-11-14T13:17:52.998Z,1017.45
2017-11-14T13:19:46.480Z,1017.42
2017-11-14T13:20:46.361Z,1017.42
2017-11-14T13:22:39.790Z,1017.42
2017-11-14T13:23:39.793Z,1017.49
2017-11-14T13:25:33.637Z,1017.45
2017-11-14T13:26:33.112Z,1017.45
2017-11-14T13:28:26.481Z,1017.37
2017-11-14T13:29:26.411Z,1017.42
2017-11-14T13:31:20.044Z,1017.41
2017-11-14T13:32:19.930Z,1017.45
2017-11-14T13:34:13.359Z,1017.39
2017-11-14T13:35:13.288Z,1017.37
2017-11-14T13:37:06.972Z,1017.41
2017-11-14T13:38:06.651Z,1017.38
2017-11-14T13:40:00.095Z,1017.34
2017-11-14T13:41:00.041Z,1017.32
2017-11-14T13:42:53.754Z,1017.36
2017-11-14T13:43:53.643Z,1017.39
2017-11-14T13:45:47.136Z,1017.38
2017-11-14T13:46:47.071Z,1017.37
2017-11-14T13:48:40.709Z,1017.37
2017-11-14T13:49:40.480Z,1017.42
2017-11-14T13:50:40.486Z,1017.40
2017-11-14T13:51:40.362Z,1017.41
2017-11-14T13:52:40.299Z,1017.40
2017-11-14T13:53:40.242Z,1017.43
2017-11-14T13:54:40.184Z,1017.40
2017-11-14T13:55:40.130Z,1017.42
2017-11-14T13:56:40.079Z,1017.42
2017-11-14T13:57:40.100Z,1017.44
2017-11-14T13:58:40.078Z,1017.43
2017-11-14T13:59:39.893Z,1017.43
2017-11-14T14:00:39.837Z,1017.48
2017-11-14T14:01:39.812Z,1017.45
2017-11-14T14:02:39.726Z,1017.50
2017-11-14T14:03:39.663Z,1017.47
2017-11-14T14:04:39.610Z,1017.48
2017-11-14T14:05:39.552Z,1017.48
2017-11-14T14:06:39.499Z,1017.52
2017-11-14T14:07:39.445Z,1017.47
2017-11-14T14:08:39.382Z,1017.52
2017-11-14T14:09:39.326Z,1017.51
2017-11-14T14:10:39.266Z,1017.52
2017-11-14T14:11:39.209Z,1017.52
2017-11-14T14:12:39.149Z,1017.47
2017-11-14T14:13:39.093Z,1017.56
2017-11-14T14:14:39.034Z,1017.50
2017-11-14T14:15:38.980Z,1017.51
2017-11-14T14:16:38.920Z,1017.54
2017-11-14T14:17:38.873Z,1017.53
2017-11-14T14:18:38.801Z,1017.58
2017-11-14T14:19:38.757Z,1017.60
2017-11-14T14:20:38.695Z,1017.61
2017-11-14T14:21:38.636Z,1017.57
2017-11-14T14:22:38.593Z,1017.56
2017-11-14T14:23:38.519Z,1017.56
2017-11-14T14:24:38.463Z,1017.59
2017-11-14T14:25:38.405Z,1017.59
2017-11-14T14:26:38.414Z,1017.60
2017-11-14T14:27:38.317Z,1017.61
2017-11-14T14:28:38.234Z,1017.58
2017-11-14T14:29:38.179Z,1017.57
2017-11-14T14:30:38.121Z,1017.56
2017-11-14T14:31:38.069Z,1017.52
2017-11-14T14:32:38.001Z,1017.53
2017-11-14T14:33:37.961Z,1017.55
2017-11-14T14:34:37.888Z,1017.49
2017-11-14T14:35:37.836Z,1017.52
2017-11-14T14:36:37.776Z,1017.50
2017-11-14T14:37:37.718Z,1017.50
2017-11-14T14:38:37.661Z,1017.43
2017-11-14T14:39:37.606Z,1017.42
2017-11-14T14:40:37.545Z,1017.44
2017-11-14T14:41:37.494Z,1017.43
2017-11-14T14:42:37.442Z,1017.43
2017-11-14T14:43:37.383Z,1017.42
2017-11-14T14:44:37.322Z,1017.43
2017-11-14T14:45:37.262Z,1017.44
2017-11-14T14:46:37.204Z,1017.44
2017-11-14T14:47:37.148Z,1017.44
2017-11-14T14:48:37.091Z,1017.40
2017-11-14T14:49:37.041Z,1017.44
2017-11-14T14:50:36.974Z,1017.42
2017-11-14T14:51:36.924Z,1017.44
2017-11-14T14:52:36.860Z,1017.45
2017-11-14T14:53:36.808Z,1017.43
2017-11-14T14:54:36.756Z,1017.47
2017-11-14T14:55:36.692Z,1017.48
2017-11-14T14:56:36.637Z,1017.46
2017-11-14T14:57:36.586Z,1017.48
2017-11-14T14:58:36.526Z,1017.48
2017-11-14T14:59:36.486Z,1017.50
2017-11-14T15:00:36.528Z,1017.48
2017-11-14T15:01:36.361Z,1017.46
2017-11-14T15:02:36.298Z,1017.47
2017-11-14T15:03:36.242Z,1017.48
2017-11-14T15:04:36.189Z,1017.47
2017-11-14T15:05:36.165Z,1017.48
2017-11-14T15:06:36.068Z,1017.43
2017-11-14T15:07:36.012Z,1017.44
2017-11-14T15:08:36.032Z,1017.41
2017-11-14T15:09:35.902Z,1017.47
2017-11-14T15:10:35.843Z,1017.42
2017-11-14T15:11:35.790Z,1017.47
2017-11-14T15:12:35.841Z,1017.47
2017-11-14T15:13:35.682Z,1017.49
2017-11-14T15:14:35.765Z,1017.46
2017-11-14T15:15:35.569Z,1017.48
2017-11-14T15:16:35.499Z,1017.44
2017-11-14T15:17:35.442Z,1017.45
2017-11-14T15:18:35.388Z,1017.43
2017-11-14T15:19:35.333Z,1017.46
2017-11-14T15:20:35.268Z,1017.48
2017-11-14T15:21:35.216Z,1017.46
2017-11-14T15:22:35.155Z,1017.46
2017-11-14T15:23:35.108Z,1017.48
2017-11-14T15:24:35.045Z,1017.46
2017-11-14T15:25:34.994Z,1017.50
2017-11-14T15:26:34.933Z,1017.48
2017-11-14T15:27:34.879Z,1017.46
2017-11-14T15:28:34.819Z,1017.53
2017-11-14T15:29:34.795Z,1017.50
2017-11-14T15:30:34.721Z,1017.53
2017-11-14T15:31:34.716Z,1017.55
2017-11-14T15:32:34.595Z,1017.53
2017-11-14T15:33:34.546Z,1017.54
2017-11-14T15:34:34.489Z,1017.55
2017-11-14T15:35:34.425Z,1017.55
2017-11-14T15:36:34.384Z,1017.55
2017-11-14T15:37:34.314Z,1017.58
2017-11-14T15:38:34.258Z,1017.55
2017-11-14T15:39:34.285Z,1017.56
2017-11-14T15:40:34.153Z,1017.60
2017-11-14T15:41:34.167Z,1017.59
2017-11-14T15:42:34.048Z,1017.58
2017-11-14T15:43:33.973Z,1017.59
2017-11-14T15:44:33.920Z,1017.60
2017-11-14T15:45:33.874Z,1017.63
2017-11-14T15:46:33.805Z,1017.64
2017-11-14T15:47:33.748Z,1017.66
2017-11-14T15:48:33.712Z,1017.61
2017-11-14T15:49:33.643Z,1017.68
2017-11-14T15:50:33.596Z,1017.67
2017-11-14T15:51:33.527Z,1017.65
2017-11-14T15:52:33.472Z,1017.62
2017-11-14T15:53:33.489Z,1017.63
2017-11-14T15:54:33.348Z,1017.60
2017-11-14T15:55:33.292Z,1017.63
2017-11-14T15:56:33.233Z,1017.69
2017-11-14T15:57:33.190Z,1017.65
2017-11-14T15:58:33.163Z,1017.64
2017-11-14T15:59:33.067Z,1017.66
2017-11-14T16:00:33.011Z,1017.62
2017-11-14T16:01:32.964Z,1017.63
2017-11-14T16:02:32.896Z,1017.62
2017-11-14T16:03:33.250Z,1017.58
2017-11-14T16:04:32.789Z,1017.58
2017-11-14T16:05:32.735Z,1017.58
2017-11-14T16:06:32.667Z,1017.56
2017-11-14T16:07:32.616Z,1017.59
2017-11-14T16:08:32.557Z,1017.56
2017-11-14T16:09:32.499Z,1017.59
2017-11-14T16:10:32.461Z,1017.50
2017-11-14T16:11:32.386Z,1017.57
2017-11-14T16:12:32.391Z,1017.58
2017-11-14T16:13:32.306Z,1017.55
2017-11-14T16:14:32.222Z,1017.53
2017-11-14T16:15:32.165Z,1017.62
2017-11-14T16:16:32.103Z,1017.56
2017-11-14T16:17:32.117Z,1017.51
2017-11-14T16:18:31.995Z,1017.55
2017-11-14T16:19:31.940Z,1017.54
2017-11-14T16:20:31.879Z,1017.53
2017-11-14T16:21:31.824Z,1017.55
2017-11-14T16:22:31.769Z,1017.57
2017-11-14T16:23:31.708Z,1017.56
2017-11-14T16:24:31.653Z,1017.57
2017-11-14T16:25:31.598Z,1017.52
2017-11-14T16:26:31.542Z,1017.58
2017-11-14T16:27:31.483Z,1017.54
2017-11-14T16:28:31.429Z,1017.56
2017-11-14T16:29:31.371Z,1017.52
2017-11-14T16:30:31.314Z,1017.57
2017-11-14T16:31:31.258Z,1017.54
2017-11-14T16:32:31.208Z,1017.61
2017-11-14T16:33:31.145Z,1017.60
2017-11-14T16:34:31.089Z,1017.59
2017-11-14T16:35:31.037Z,1017.59
2017-11-14T16:36:30.973Z,1017.61
2017-11-14T16:37:30.929Z,1017.61
2017-11-14T16:38:30.869Z,1017.67
2017-11-14T16:39:30.808Z,1017.68
2017-11-14T16:40:30.759Z,1017.66
2017-11-14T16:41:31.384Z,1017.63
2017-11-14T16:42:30.635Z,1017.64
2017-11-14T16:43:30.581Z,1017.68
2017-11-14T16:44:30.524Z,1017.68
2017-11-14T16:45:30.478Z,1017.76
2017-11-14T16:46:30.412Z,1017.75
2017-11-14T16:47:30.359Z,1017.75
2017-11-14T16:48:30.305Z,1017.80
2017-11-14T16:49:30.243Z,1017.80
2017-11-14T16:50:30.193Z,1017.80
2017-11-14T16:51:30.129Z,1017.84
2017-11-14T16:52:30.074Z,1017.85
2017-11-14T16:53:30.016Z,1017.87
2017-11-14T16:54:29.962Z,1017.88
2017-11-14T16:55:29.900Z,1017.91
2017-11-14T16:56:29.854Z,1017.88
2017-11-14T16:57:29.791Z,1017.93
2017-11-14T16:58:29.734Z,1017.91
2017-11-14T16:59:29.679Z,1017.92
2017-11-14T17:00:29.627Z,1017.93
2017-11-14T17:01:29.573Z,1017.94
2017-11-14T17:02:29.510Z,1017.96
2017-11-14T17:03:29.458Z,1017.95
2017-11-14T17:04:29.405Z,1017.96
2017-11-14T17:05:29.342Z,1017.99
2017-11-14T17:06:29.285Z,1017.97
2017-11-14T17:07:29.227Z,1017.98
2017-11-14T17:08:29.172Z,1017.98
2017-11-14T17:09:29.128Z,1018.01
2017-11-14T17:10:29.058Z,1017.96
2017-11-14T17:11:29.005Z,1017.92
2017-11-14T17:12:28.951Z,1017.93
2017-11-14T17:13:28.894Z,1017.96
2017-11-14T17:14:28.833Z,1018.01
2017-11-14T17:15:28.776Z,1018.01
2017-11-14T17:16:28.720Z,1017.97
2017-11-14T17:17:28.665Z,1017.97
2017-11-14T17:18:28.616Z,1018.04
2017-11-14T17:19:28.554Z,1018.06
2017-11-14T17:20:28.604Z,1018.07
2017-11-14T17:21:28.438Z,1018.06
2017-11-14T17:22:28.395Z,1018.04
2017-11-14T17:23:28.329Z,1018.13
2017-11-14T17:24:28.275Z,1018.13
2017-11-14T17:25:28.217Z,1018.12
2017-11-14T17:26:28.157Z,1018.13
2017-11-14T17:27:28.102Z,1018.11
2017-11-14T17:28:28.046Z,1018.11
2017-11-14T17:29:27.989Z,1018.13
2017-11-14T17:30:27.932Z,1018.17
2017-11-14T17:31:27.875Z,1018.15
2017-11-14T17:32:27.821Z,1018.12
2017-11-14T17:33:27.763Z,1018.16
2017-11-14T17:34:27.785Z,1018.13
2017-11-14T17:35:27.649Z,1018.17
2017-11-14T17:36:27.607Z,1018.18
2017-11-14T17:37:27.544Z,1018.18
2017-11-14T17:38:27.482Z,1018.21
2017-11-14T17:39:27.424Z,1018.17
2017-11-14T17:40:27.369Z,1018.19
2017-11-14T17:41:27.311Z,1018.21
2017-11-14T17:42:27.253Z,1018.25
2017-11-14T17:43:27.200Z,1018.24
2017-11-14T17:44:27.142Z,1018.25
2017-11-14T17:45:27.093Z,1018.28
2017-11-14T17:46:27.045Z,1018.32
2017-11-14T17:47:26.971Z,1018.30
2017-11-14T17:48:26.916Z,1018.33
2017-11-14T17:49:26.877Z,1018.29
2017-11-14T17:50:26.802Z,1018.32
2017-11-14T17:51:26.750Z,1018.27
2017-11-14T17:52:26.688Z,1018.28
2017-11-14T17:53:26.635Z,1018.26
2017-11-14T17:54:26.616Z,1018.30
2017-11-14T17:55:26.518Z,1018.26
2017-11-14T17:56:26.459Z,1018.25
2017-11-14T17:57:26.408Z,1018.32
2017-11-14T17:58:26.351Z,1018.28
2017-11-14T17:59:26.296Z,1018.31
2017-11-14T18:00:26.235Z,1018.33
2017-11-14T18:01:26.182Z,1018.30
2017-11-14T18:02:26.122Z,1018.29
2017-11-14T18:03:26.079Z,1018.33
2017-11-14T18:04:26.009Z,1018.35
2017-11-14T18:05:25.972Z,1018.34
2017-11-14T18:06:25.894Z,1018.43
2017-11-14T18:07:25.843Z,1018.40
2017-11-14T18:08:25.781Z,1018.43
2017-11-14T18:09:25.731Z,1018.45
2017-11-14T18:10:25.668Z,1018.43
2017-11-14T18:11:25.613Z,1018.48
2017-11-14T18:12:25.554Z,1018.48
2017-11-14T18:13:25.498Z,1018.50
2017-11-14T18:14:25.443Z,1018.53
2017-11-14T18:15:25.385Z,1018.54
2017-11-14T18:16:25.327Z,1018.53
2017-11-14T18:17:25.274Z,1018.54
2017-11-14T18:18:25.225Z,1018.60
2017-11-14T18:19:25.159Z,1018.57
2017-11-14T18:20:25.103Z,1018.58
2017-11-14T18:21:25.046Z,1018.59
2017-11-14T18:22:24.990Z,1018.57
2017-11-14T18:23:24.935Z,1018.55
2017-11-14T18:24:24.876Z,1018.54
2017-11-14T18:25:24.819Z,1018.61
2017-11-14T18:26:24.761Z,1018.59
2017-11-14T18:27:24.706Z,1018.60
2017-11-14T18:28:24.659Z,1018.63
2017-11-14T18:29:24.594Z,1018.61
2017-11-14T18:30:24.535Z,1018.61
2017-11-14T18:31:24.503Z,1018.58
2017-11-14T18:32:24.424Z,1018.58
2017-11-14T18:33:24.373Z,1018.59
2017-11-14T18:34:24.309Z,1018.58
2017-11-14T18:35:24.255Z,1018.55
2017-11-14T18:36:24.264Z,1018.58
2017-11-14T18:37:24.147Z,1018.59
2017-11-14T18:38:24.090Z,1018.59
2017-11-14T18:39:24.031Z,1018.62
2017-11-14T18:40:23.970Z,1018.59
2017-11-14T18:41:23.932Z,1018.60
2017-11-14T18:42:23.864Z,1018.66
2017-11-14T18:43:23.803Z,1018.67
2017-11-14T18:44:23.757Z,1018.66
2017-11-14T18:45:23.704Z,1018.65
2017-11-14T18:46:23.632Z,1018.64
2017-11-14T18:47:23.575Z,1018.63
2017-11-14T18:48:23.536Z,1018.66
2017-11-14T18:49:23.466Z,1018.65
2017-11-14T18:50:23.410Z,1018.66
2017-11-14T18:51:23.351Z,1018.66
2017-11-14T18:52:23.295Z,1018.69
2017-11-14T18:53:23.241Z,1018.68
2017-11-14T18:54:23.187Z,1018.64
2017-11-14T18:55:23.127Z,1018.67
2017-11-14T18:56:23.082Z,1018.67
2017-11-14T18:57:23.026Z,1018.71
2017-11-14T18:58:22.957Z,1018.69
2017-11-14T18:59:22.899Z,1018.72
2017-11-14T19:00:22.847Z,1018.69
2017-11-14T19:01:22.789Z,1018.67
2017-11-14T19:02:22.731Z,1018.70
2017-11-14T19:03:22.675Z,1018.68
2017-11-14T19:04:22.632Z,1018.70
2017-11-14T19:05:22.556Z,1018.71
2017-11-14T19:06:22.501Z,1018.69
2017-11-14T19:07:22.443Z,1018.70
2017-11-14T19:08:22.387Z,1018.73
2017-11-14T19:09:22.332Z,1018.73
2017-11-14T19:10:22.278Z,1018.72
2017-11-14T19:11:22.213Z,1018.68
2017-11-14T19:12:22.159Z,1018.69
2017-11-14T19:13:22.100Z,1018.65
2017-11-14T19:14:22.044Z,1018.70
2017-11-14T19:15:21.981Z,1018.71
2017-11-14T19:16:21.927Z,1018.70
2017-11-14T19:17:21.871Z,1018.67
2017-11-14T19:18:21.811Z,1018.66
2017-11-14T19:19:21.755Z,1018.68
2017-11-14T19:20:21.713Z,1018.68
2017-11-14T19:21:21.644Z,1018.67
2017-11-14T19:22:21.583Z,1018.64
2017-11-14T19:23:21.528Z,1018.66
2017-11-14T19:24:21.473Z,1018.68
2017-11-14T19:25:21.415Z,1018.66
2017-11-14T19:26:21.353Z,1018.67